sensor_id;sensor_type;location;lat;lon;timestamp;temperature;humidity
4451;DHT22;2238;50.180;9.230;2022-11-27T00:02:34;5.90;99.90
4451;DHT22;2238;50.180;9.230;2022-11-27T00:05:34;5.80;99.90
4451;DHT22;2238;50.180;9.230;2022-11-27T00:08:35;5.90;99.90
4451;DHT22;2238;50.180;9.230;2022-11-27T00:11:35;5.80;99.90
4451;DHT22;2238;50.180;9.230;2022-11-27T00:14:39;5.70;99.90
4451;DHT22;2238;50.180;9.230;2022-11-27T00:17:39;6.90;99.90
4451;DHT22;2238;50.180;9.230;2022-11-27T00:20:40;5.90;99.90
4451;DHT22;2238;50.180;9.230;2022-11-27T00:23:41;5.80;99.90
4451;DHT22;2238;50.180;9.230;2022-11-27T00:26:42;5.70;99.90
4451;DHT22;2238;50.180;9.230;2022-11-27T00:29:43;5.30;99.90
4451;DHT22;2238;50.180;9.230;2022-11-27T00:32:43;5.40;99.90
4451;DHT22;2238;50.180;9.230;2022-11-27T00:35:44;5.30;99.90
4451;DHT22;2238;50.180;9.230;2022-11-27T00:38:45;5.20;99.90
4451;DHT22;2238;50.180;9.230;2022-11-27T00:41:45;5.10;99.90
4451;DHT22;2238;50.180;9.230;2022-11-27T00:44:46;5.30;99.90
4451;DHT22;2238;50.180;9.230;2022-11-27T00:47:46;5.10;99.90
4451;DHT22;2238;50.180;9.230;2022-11-27T00:50:47;5.10;99.90
4451;DHT22;2238;50.180;9.230;2022-11-27T00:53:47;5.00;99.90
4451;DHT22;2238;50.180;9.230;2022-11-27T00:56:48;4.90;99.90
4451;DHT22;2238;50.180;9.230;2022-11-27T00:59:49;7.00;99.90
4451;DHT22;2238;50.180;9.230;2022-11-27T01:02:49;5.10;99.90
4451;DHT22;2238;50.180;9.230;2022-11-27T01:05:50;5.10;99.90
4451;DHT22;2238;50.180;9.230;2022-11-27T01:08:51;5.20;99.90
4451;DHT22;2238;50.180;9.230;2022-11-27T01:11:51;5.40;99.90
4451;DHT22;2238;50.180;9.230;2022-11-27T01:14:52;5.30;99.90
4451;DHT22;2238;50.180;9.230;2022-11-27T01:17:53;5.30;99.90
4451;DHT22;2238;50.180;9.230;2022-11-27T01:20:54;5.00;99.90
4451;DHT22;2238;50.180;9.230;2022-11-27T01:23:55;5.10;99.90
4451;DHT22;2238;50.180;9.230;2022-11-27T01:26:56;5.30;99.90
4451;DHT22;2238;50.180;9.230;2022-11-27T01:29:56;5.40;99.90
4451;DHT22;2238;50.180;9.230;2022-11-27T01:32:57;5.50;99.90
4451;DHT22;2238;50.180;9.230;2022-11-27T01:36:00;5.50;99.90
4451;DHT22;2238;50.180;9.230;2022-11-27T01:39:01;5.10;99.90
4451;DHT22;2238;50.180;9.230;2022-11-27T01:42:01;4.90;99.90
4451;DHT22;2238;50.180;9.230;2022-11-27T01:45:02;6.10;99.90
4451;DHT22;2238;50.180;9.230;2022-11-27T01:48:03;4.50;99.90
4451;DHT22;2238;50.180;9.230;2022-11-27T01:51:04;4.40;99.90
4451;DHT22;2238;50.180;9.230;2022-11-27T01:54:05;4.40;99.90
4451;DHT22;2238;50.180;9.230;2022-11-27T01:57:12;4.20;99.90
4451;DHT22;2238;50.180;9.230;2022-11-27T02:00:16;4.20;99.90
4451;DHT22;2238;50.180;9.230;2022-11-27T02:03:17;4.00;99.90
4451;DHT22;2238;50.180;9.230;2022-11-27T02:06:17;4.00;99.90
4451;DHT22;2238;50.180;9.230;2022-11-27T02:09:18;4.00;99.90
4451;DHT22;2238;50.180;9.230;2022-11-27T02:12:45;4.10;99.90
4451;DHT22;2238;50.180;9.230;2022-11-27T02:15:47;4.10;99.90
4451;DHT22;2238;50.180;9.230;2022-11-27T02:19:24;4.10;99.90
4451;DHT22;2238;50.180;9.230;2022-11-27T02:29:09;4.00;99.90
4451;DHT22;2238;50.180;9.230;2022-11-27T02:32:26;4.40;99.90
4451;DHT22;2238;50.180;9.230;2022-11-27T02:35:37;4.60;99.90
4451;DHT22;2238;50.180;9.230;2022-11-27T02:38:50;4.60;99.90
4451;DHT22;2238;50.180;9.230;2022-11-27T02:42:16;4.50;99.90
4451;DHT22;2238;50.180;9.230;2022-11-27T02:45:27;4.30;99.90
4451;DHT22;2238;50.180;9.230;2022-11-27T02:48:33;4.30;99.90
4451;DHT22;2238;50.180;9.230;2022-11-27T02:51:39;4.50;99.90
4451;DHT22;2238;50.180;9.230;2022-11-27T02:54:42;4.40;99.90
4451;DHT22;2238;50.180;9.230;2022-11-27T02:57:44;4.40;99.90
4451;DHT22;2238;50.180;9.230;2022-11-27T03:00:47;4.30;99.90
4451;DHT22;2238;50.180;9.230;2022-11-27T03:03:54;4.40;99.90
4451;DHT22;2238;50.180;9.230;2022-11-27T03:07:00;4.50;99.90
4451;DHT22;2238;50.180;9.230;2022-11-27T03:10:06;4.50;99.90
4451;DHT22;2238;50.180;9.230;2022-11-27T03:13:08;4.50;99.90
4451;DHT22;2238;50.180;9.230;2022-11-27T03:16:47;4.50;99.90
4451;DHT22;2238;50.180;9.230;2022-11-27T03:20:22;4.50;99.90
4451;DHT22;2238;50.180;9.230;2022-11-27T03:23:26;4.10;99.90
4451;DHT22;2238;50.180;9.230;2022-11-27T03:26:27;4.10;99.90
4451;DHT22;2238;50.180;9.230;2022-11-27T03:29:34;3.90;99.90
4451;DHT22;2238;50.180;9.230;2022-11-27T03:32:36;3.90;99.90
4451;DHT22;2238;50.180;9.230;2022-11-27T03:35:37;3.80;99.90
4451;DHT22;2238;50.180;9.230;2022-11-27T03:38:37;3.70;99.90
4451;DHT22;2238;50.180;9.230;2022-11-27T03:51:49;3.50;99.90
4451;DHT22;2238;50.180;9.230;2022-11-27T03:58:30;3.50;99.90
4451;DHT22;2238;50.180;9.230;2022-11-27T04:01:29;3.50;99.90
4451;DHT22;2238;50.180;9.230;2022-11-27T04:04:30;3.50;99.90
4451;DHT22;2238;50.180;9.230;2022-11-27T04:07:31;3.50;99.90
4451;DHT22;2238;50.180;9.230;2022-11-27T04:10:31;5.10;99.90
4451;DHT22;2238;50.180;9.230;2022-11-27T04:13:32;3.50;99.90
4451;DHT22;2238;50.180;9.230;2022-11-27T04:16:34;3.50;99.90
4451;DHT22;2238;50.180;9.230;2022-11-27T04:19:34;3.50;99.90
4451;DHT22;2238;50.180;9.230;2022-11-27T04:22:35;4.50;99.90
4451;DHT22;2238;50.180;9.230;2022-11-27T04:25:35;3.40;99.90
4451;DHT22;2238;50.180;9.230;2022-11-27T04:28:36;3.50;99.90
4451;DHT22;2238;50.180;9.230;2022-11-27T04:31:36;3.50;99.90
4451;DHT22;2238;50.180;9.230;2022-11-27T04:34:37;3.60;99.90
4451;DHT22;2238;50.180;9.230;2022-11-27T04:37:37;3.50;99.90
4451;DHT22;2238;50.180;9.230;2022-11-27T04:40:38;3.60;99.90
4451;DHT22;2238;50.180;9.230;2022-11-27T04:43:39;3.50;99.90
4451;DHT22;2238;50.180;9.230;2022-11-27T04:46:39;3.40;99.90
4451;DHT22;2238;50.180;9.230;2022-11-27T04:49:40;3.40;99.90
4451;DHT22;2238;50.180;9.230;2022-11-27T04:52:40;3.40;99.90
4451;DHT22;2238;50.180;9.230;2022-11-27T04:55:41;3.40;99.90
4451;DHT22;2238;50.180;9.230;2022-11-27T04:58:42;3.40;99.90
4451;DHT22;2238;50.180;9.230;2022-11-27T05:01:42;3.40;99.90
4451;DHT22;2238;50.180;9.230;2022-11-27T05:04:43;3.30;99.90
4451;DHT22;2238;50.180;9.230;2022-11-27T05:07:44;3.40;99.90
4451;DHT22;2238;50.180;9.230;2022-11-27T05:10:45;3.40;99.90
4451;DHT22;2238;50.180;9.230;2022-11-27T05:13:46;3.40;99.90
4451;DHT22;2238;50.180;9.230;2022-11-27T05:16:55;3.40;99.90
4451;DHT22;2238;50.180;9.230;2022-11-27T05:19:56;3.30;99.90
4451;DHT22;2238;50.180;9.230;2022-11-27T05:22:57;3.30;99.90
4451;DHT22;2238;50.180;9.230;2022-11-27T05:25:57;3.30;99.90
4451;DHT22;2238;50.180;9.230;2022-11-27T05:28:59;3.30;99.90
4451;DHT22;2238;50.180;9.230;2022-11-27T05:32:01;3.20;99.90
4451;DHT22;2238;50.180;9.230;2022-11-27T05:35:02;3.20;99.90
4451;DHT22;2238;50.180;9.230;2022-11-27T05:38:03;3.10;99.90
4451;DHT22;2238;50.180;9.230;2022-11-27T05:41:04;3.20;99.90
4451;DHT22;2238;50.180;9.230;2022-11-27T05:44:05;3.10;99.90
4451;DHT22;2238;50.180;9.230;2022-11-27T05:47:06;3.10;99.90
4451;DHT22;2238;50.180;9.230;2022-11-27T05:50:07;3.10;99.90
4451;DHT22;2238;50.180;9.230;2022-11-27T05:53:07;3.10;99.90
4451;DHT22;2238;50.180;9.230;2022-11-27T05:56:16;3.10;99.90
4451;DHT22;2238;50.180;9.230;2022-11-27T05:59:17;3.00;99.90
4451;DHT22;2238;50.180;9.230;2022-11-27T06:02:18;3.00;99.90
4451;DHT22;2238;50.180;9.230;2022-11-27T06:05:19;3.10;99.90
4451;DHT22;2238;50.180;9.230;2022-11-27T06:08:19;3.00;99.90
4451;DHT22;2238;50.180;9.230;2022-11-27T06:11:21;3.00;99.90
4451;DHT22;2238;50.180;9.230;2022-11-27T06:14:21;3.00;99.90
4451;DHT22;2238;50.180;9.230;2022-11-27T06:17:22;3.00;99.90
4451;DHT22;2238;50.180;9.230;2022-11-27T06:20:23;3.00;99.90
4451;DHT22;2238;50.180;9.230;2022-11-27T06:23:24;3.00;99.90
4451;DHT22;2238;50.180;9.230;2022-11-27T06:26:27;3.00;99.90
4451;DHT22;2238;50.180;9.230;2022-11-27T06:29:28;3.00;99.90
4451;DHT22;2238;50.180;9.230;2022-11-27T06:32:29;2.90;99.90
4451;DHT22;2238;50.180;9.230;2022-11-27T06:35:30;3.00;99.90
4451;DHT22;2238;50.180;9.230;2022-11-27T06:38:32;2.90;99.90
4451;DHT22;2238;50.180;9.230;2022-11-27T06:41:33;2.90;99.90
4451;DHT22;2238;50.180;9.230;2022-11-27T06:44:34;2.90;99.90
4451;DHT22;2238;50.180;9.230;2022-11-27T06:47:34;2.90;99.90
4451;DHT22;2238;50.180;9.230;2022-11-27T06:50:35;3.00;99.90
4451;DHT22;2238;50.180;9.230;2022-11-27T06:53:36;3.00;99.90
4451;DHT22;2238;50.180;9.230;2022-11-27T06:56:37;3.00;99.90
4451;DHT22;2238;50.180;9.230;2022-11-27T06:59:37;3.00;99.90
4451;DHT22;2238;50.180;9.230;2022-11-27T07:02:38;3.00;99.90
4451;DHT22;2238;50.180;9.230;2022-11-27T07:05:38;3.00;99.90
4451;DHT22;2238;50.180;9.230;2022-11-27T07:08:39;3.00;99.90
4451;DHT22;2238;50.180;9.230;2022-11-27T07:11:40;3.10;99.90
4451;DHT22;2238;50.180;9.230;2022-11-27T07:14:41;3.20;99.90
4451;DHT22;2238;50.180;9.230;2022-11-27T07:17:42;3.20;99.90
4451;DHT22;2238;50.180;9.230;2022-11-27T07:20:42;3.20;99.90
4451;DHT22;2238;50.180;9.230;2022-11-27T07:23:50;3.20;99.90
4451;DHT22;2238;50.180;9.230;2022-11-27T07:26:50;3.20;99.90
4451;DHT22;2238;50.180;9.230;2022-11-27T07:29:51;3.20;99.90
4451;DHT22;2238;50.180;9.230;2022-11-27T07:32:52;3.10;99.90
4451;DHT22;2238;50.180;9.230;2022-11-27T07:36:00;3.10;99.90
4451;DHT22;2238;50.180;9.230;2022-11-27T07:39:01;3.10;99.90
4451;DHT22;2238;50.180;9.230;2022-11-27T07:42:02;3.20;99.90
4451;DHT22;2238;50.180;9.230;2022-11-27T07:45:03;3.10;99.90
4451;DHT22;2238;50.180;9.230;2022-11-27T07:48:05;3.20;99.90
4451;DHT22;2238;50.180;9.230;2022-11-27T07:51:08;3.20;99.90
4451;DHT22;2238;50.180;9.230;2022-11-27T07:54:09;3.20;99.90
4451;DHT22;2238;50.180;9.230;2022-11-27T07:57:10;3.20;99.90
4451;DHT22;2238;50.180;9.230;2022-11-27T08:00:11;3.20;99.90
4451;DHT22;2238;50.180;9.230;2022-11-27T08:03:11;3.30;99.90
4451;DHT22;2238;50.180;9.230;2022-11-27T08:06:17;3.40;99.90
4451;DHT22;2238;50.180;9.230;2022-11-27T08:09:18;3.30;99.90
4451;DHT22;2238;50.180;9.230;2022-11-27T08:12:18;3.20;99.90
4451;DHT22;2238;50.180;9.230;2022-11-27T08:15:19;3.10;99.90
4451;DHT22;2238;50.180;9.230;2022-11-27T08:18:19;3.10;99.90
4451;DHT22;2238;50.180;9.230;2022-11-27T08:21:20;3.20;99.90
4451;DHT22;2238;50.180;9.230;2022-11-27T08:24:21;3.20;99.90
4451;DHT22;2238;50.180;9.230;2022-11-27T08:27:22;3.20;99.90
4451;DHT22;2238;50.180;9.230;2022-11-27T08:30:23;3.20;99.90
4451;DHT22;2238;50.180;9.230;2022-11-27T08:33:23;3.30;99.90
4451;DHT22;2238;50.180;9.230;2022-11-27T08:36:25;3.40;99.90
4451;DHT22;2238;50.180;9.230;2022-11-27T08:39:26;4.00;99.90
4451;DHT22;2238;50.180;9.230;2022-11-27T08:42:26;3.80;99.90
4451;DHT22;2238;50.180;9.230;2022-11-27T08:45:27;3.80;99.90
4451;DHT22;2238;50.180;9.230;2022-11-27T08:48:28;3.80;99.90
4451;DHT22;2238;50.180;9.230;2022-11-27T08:51:28;4.10;99.90
4451;DHT22;2238;50.180;9.230;2022-11-27T08:54:29;4.20;99.90
4451;DHT22;2238;50.180;9.230;2022-11-27T08:57:29;4.50;99.90
4451;DHT22;2238;50.180;9.230;2022-11-27T09:00:31;4.60;99.90
4451;DHT22;2238;50.180;9.230;2022-11-27T09:03:31;5.00;99.90
4451;DHT22;2238;50.180;9.230;2022-11-27T09:06:33;5.20;99.90
4451;DHT22;2238;50.180;9.230;2022-11-27T09:09:36;5.30;99.90
4451;DHT22;2238;50.180;9.230;2022-11-27T09:12:37;6.00;99.90
4451;DHT22;2238;50.180;9.230;2022-11-27T09:15:38;6.10;99.90
4451;DHT22;2238;50.180;9.230;2022-11-27T09:18:39;6.10;99.90
4451;DHT22;2238;50.180;9.230;2022-11-27T09:21:39;6.00;99.90
4451;DHT22;2238;50.180;9.230;2022-11-27T09:24:40;5.60;99.90
4451;DHT22;2238;50.180;9.230;2022-11-27T09:27:40;5.50;99.90
4451;DHT22;2238;50.180;9.230;2022-11-27T09:30:41;5.10;99.90
4451;DHT22;2238;50.180;9.230;2022-11-27T09:33:42;4.90;99.90
4451;DHT22;2238;50.180;9.230;2022-11-27T09:36:43;5.20;99.90
4451;DHT22;2238;50.180;9.230;2022-11-27T09:39:44;5.30;99.90
4451;DHT22;2238;50.180;9.230;2022-11-27T09:43:02;5.10;99.90
4451;DHT22;2238;50.180;9.230;2022-11-27T09:46:11;5.50;99.90
4451;DHT22;2238;50.180;9.230;2022-11-27T09:52:52;5.70;99.90
4451;DHT22;2238;50.180;9.230;2022-11-27T09:55:56;5.90;99.90
4451;DHT22;2238;50.180;9.230;2022-11-27T09:58:59;5.40;99.90
4451;DHT22;2238;50.180;9.230;2022-11-27T10:02:00;5.20;99.90
4451;DHT22;2238;50.180;9.230;2022-11-27T10:05:06;5.40;99.90
4451;DHT22;2238;50.180;9.230;2022-11-27T10:15:18;5.90;99.90
4451;DHT22;2238;50.180;9.230;2022-11-27T10:21:42;7.20;99.90
4451;DHT22;2238;50.180;9.230;2022-11-27T10:31:27;8.40;99.90
4451;DHT22;2238;50.180;9.230;2022-11-27T10:53:29;6.70;99.90
4451;DHT22;2238;50.180;9.230;2022-11-27T11:00:18;7.60;99.90
4451;DHT22;2238;50.180;9.230;2022-11-27T11:03:19;7.60;99.90
4451;DHT22;2238;50.180;9.230;2022-11-27T11:06:24;7.60;99.90
4451;DHT22;2238;50.180;9.230;2022-11-27T11:09:33;8.20;99.90
4451;DHT22;2238;50.180;9.230;2022-11-27T11:12:34;7.80;99.90
4451;DHT22;2238;50.180;9.230;2022-11-27T11:15:50;9.70;99.90
4451;DHT22;2238;50.180;9.230;2022-11-27T11:18:53;7.40;99.90
4451;DHT22;2238;50.180;9.230;2022-11-27T11:21:54;8.30;99.90
4451;DHT22;2238;50.180;9.230;2022-11-27T11:24:54;7.30;99.90
4451;DHT22;2238;50.180;9.230;2022-11-27T11:27:55;7.90;99.90
4451;DHT22;2238;50.180;9.230;2022-11-27T11:31:06;7.50;99.90
4451;DHT22;2238;50.180;9.230;2022-11-27T11:34:24;7.60;99.90
4451;DHT22;2238;50.180;9.230;2022-11-27T11:37:31;7.70;99.90
4451;DHT22;2238;50.180;9.230;2022-11-27T11:40:34;7.60;99.90
4451;DHT22;2238;50.180;9.230;2022-11-27T11:43:36;7.60;99.90
4451;DHT22;2238;50.180;9.230;2022-11-27T11:46:36;7.90;99.90
4451;DHT22;2238;50.180;9.230;2022-11-27T11:49:39;9.10;99.90
4451;DHT22;2238;50.180;9.230;2022-11-27T11:52:46;8.30;99.90
4451;DHT22;2238;50.180;9.230;2022-11-27T12:02:36;6.90;99.90
4451;DHT22;2238;50.180;9.230;2022-11-27T12:08:57;6.80;99.90
4451;DHT22;2238;50.180;9.230;2022-11-27T12:19:51;6.90;99.90
4451;DHT22;2238;50.180;9.230;2022-11-27T12:23:21;5.30;99.90
4451;DHT22;2238;50.180;9.230;2022-11-27T12:26:38;6.80;99.90
4451;DHT22;2238;50.180;9.230;2022-11-27T12:30:05;6.80;99.90
4451;DHT22;2238;50.180;9.230;2022-11-27T12:40:06;6.60;99.90
4451;DHT22;2238;50.180;9.230;2022-11-27T12:43:31;6.50;99.90
4451;DHT22;2238;50.180;9.230;2022-11-27T12:50:07;6.30;99.90
4451;DHT22;2238;50.180;9.230;2022-11-27T12:53:22;6.30;99.90
4451;DHT22;2238;50.180;9.230;2022-11-27T12:56:41;6.30;99.90
4451;DHT22;2238;50.180;9.230;2022-11-27T12:59:53;6.40;99.90
4451;DHT22;2238;50.180;9.230;2022-11-27T13:06:08;8.10;99.90
4451;DHT22;2238;50.180;9.230;2022-11-27T13:12:41;8.20;99.90
4451;DHT22;2238;50.180;9.230;2022-11-27T13:15:43;8.30;75.50
4451;DHT22;2238;50.180;9.230;2022-11-27T13:18:50;7.10;97.80
4451;DHT22;2238;50.180;9.230;2022-11-27T13:21:55;7.10;96.10
4451;DHT22;2238;50.180;9.230;2022-11-27T13:25:00;7.00;99.90
4451;DHT22;2238;50.180;9.230;2022-11-27T13:28:02;7.00;99.90
4451;DHT22;2238;50.180;9.230;2022-11-27T13:31:05;6.80;99.90
4451;DHT22;2238;50.180;9.230;2022-11-27T13:34:08;6.80;99.90
4451;DHT22;2238;50.180;9.230;2022-11-27T13:40:35;6.70;99.90
4451;DHT22;2238;50.180;9.230;2022-11-27T13:43:44;6.90;95.40
4451;DHT22;2238;50.180;9.230;2022-11-27T13:46:46;6.90;81.40
4451;DHT22;2238;50.180;9.230;2022-11-27T13:53:08;6.80;44.20
4451;DHT22;2238;50.180;9.230;2022-11-27T13:56:09;6.80;44.20
4451;DHT22;2238;50.180;9.230;2022-11-27T13:59:22;6.70;61.60
4451;DHT22;2238;50.180;9.230;2022-11-27T14:02:25;7.20;93.20
4451;DHT22;2238;50.180;9.230;2022-11-27T14:05:40;6.30;99.90
4451;DHT22;2238;50.180;9.230;2022-11-27T14:08:50;6.20;99.90
4451;DHT22;2238;50.180;9.230;2022-11-27T14:11:51;6.20;99.90
4451;DHT22;2238;50.180;9.230;2022-11-27T14:18:19;5.80;99.90
4451;DHT22;2238;50.180;9.230;2022-11-27T14:24:40;5.70;99.90
4451;DHT22;2238;50.180;9.230;2022-11-27T14:27:42;5.40;99.90
4451;DHT22;2238;50.180;9.230;2022-11-27T14:30:47;5.40;99.90
4451;DHT22;2238;50.180;9.230;2022-11-27T14:33:48;5.40;99.90
4451;DHT22;2238;50.180;9.230;2022-11-27T14:36:51;5.20;99.90
4451;DHT22;2238;50.180;9.230;2022-11-27T14:39:52;5.20;99.90
4451;DHT22;2238;50.180;9.230;2022-11-27T14:43:05;5.20;99.90
4451;DHT22;2238;50.180;9.230;2022-11-27T14:46:16;5.20;99.90
4451;DHT22;2238;50.180;9.230;2022-11-27T14:49:18;5.00;99.90
4451;DHT22;2238;50.180;9.230;2022-11-27T14:52:19;5.00;99.90
4451;DHT22;2238;50.180;9.230;2022-11-27T14:55:21;5.00;99.90
4451;DHT22;2238;50.180;9.230;2022-11-27T14:58:27;5.00;99.90
4451;DHT22;2238;50.180;9.230;2022-11-27T15:01:33;4.90;99.90
4451;DHT22;2238;50.180;9.230;2022-11-27T15:04:39;4.90;99.90
4451;DHT22;2238;50.180;9.230;2022-11-27T15:07:40;4.80;99.90
4451;DHT22;2238;50.180;9.230;2022-11-27T15:10:41;4.90;99.90
4451;DHT22;2238;50.180;9.230;2022-11-27T15:13:42;4.90;99.90
4451;DHT22;2238;50.180;9.230;2022-11-27T15:16:49;4.80;99.90
4451;DHT22;2238;50.180;9.230;2022-11-27T15:19:51;4.80;99.90
4451;DHT22;2238;50.180;9.230;2022-11-27T15:22:54;4.80;99.90
4451;DHT22;2238;50.180;9.230;2022-11-27T15:28:59;4.80;99.90
4451;DHT22;2238;50.180;9.230;2022-11-27T15:32:00;4.80;99.90
4451;DHT22;2238;50.180;9.230;2022-11-27T15:35:12;4.70;99.90
4451;DHT22;2238;50.180;9.230;2022-11-27T15:38:16;4.80;99.90
4451;DHT22;2238;50.180;9.230;2022-11-27T15:41:27;4.80;99.90
4451;DHT22;2238;50.180;9.230;2022-11-27T15:44:31;4.80;99.90
4451;DHT22;2238;50.180;9.230;2022-11-27T15:47:36;4.80;99.90
4451;DHT22;2238;50.180;9.230;2022-11-27T15:50:37;4.80;99.90
4451;DHT22;2238;50.180;9.230;2022-11-27T15:53:37;4.90;99.90
4451;DHT22;2238;50.180;9.230;2022-11-27T15:56:38;5.00;99.90
4451;DHT22;2238;50.180;9.230;2022-11-27T15:59:38;4.90;99.90
4451;DHT22;2238;50.180;9.230;2022-11-27T16:02:39;4.90;99.90
4451;DHT22;2238;50.180;9.230;2022-11-27T16:05:39;4.90;99.90
4451;DHT22;2238;50.180;9.230;2022-11-27T16:08:40;4.90;99.90
4451;DHT22;2238;50.180;9.230;2022-11-27T16:11:41;4.90;99.90
4451;DHT22;2238;50.180;9.230;2022-11-27T16:14:42;4.90;99.90
4451;DHT22;2238;50.180;9.230;2022-11-27T16:17:42;4.90;99.90
4451;DHT22;2238;50.180;9.230;2022-11-27T16:20:43;4.90;99.90
4451;DHT22;2238;50.180;9.230;2022-11-27T16:23:43;4.90;99.90
4451;DHT22;2238;50.180;9.230;2022-11-27T16:26:44;4.90;99.90
4451;DHT22;2238;50.180;9.230;2022-11-27T16:29:45;5.00;99.90
4451;DHT22;2238;50.180;9.230;2022-11-27T16:32:45;5.00;99.90
4451;DHT22;2238;50.180;9.230;2022-11-27T16:35:46;5.30;99.90
4451;DHT22;2238;50.180;9.230;2022-11-27T16:38:48;5.80;99.90
4451;DHT22;2238;50.180;9.230;2022-11-27T16:41:50;5.30;99.90
4451;DHT22;2238;50.180;9.230;2022-11-27T16:44:51;6.30;99.90
4451;DHT22;2238;50.180;9.230;2022-11-27T16:47:51;5.50;99.90
4451;DHT22;2238;50.180;9.230;2022-11-27T16:51:10;5.60;99.90
4451;DHT22;2238;50.180;9.230;2022-11-27T16:54:11;5.40;99.90
4451;DHT22;2238;50.180;9.230;2022-11-27T16:57:12;6.40;99.90
4451;DHT22;2238;50.180;9.230;2022-11-27T17:00:13;5.10;99.90
4451;DHT22;2238;50.180;9.230;2022-11-27T17:03:14;5.10;99.90
4451;DHT22;2238;50.180;9.230;2022-11-27T17:06:21;5.10;99.90
4451;DHT22;2238;50.180;9.230;2022-11-27T17:09:22;3.10;99.90
4451;DHT22;2238;50.180;9.230;2022-11-27T17:12:25;4.90;99.90
4451;DHT22;2238;50.180;9.230;2022-11-27T17:15:25;4.80;99.90
4451;DHT22;2238;50.180;9.230;2022-11-27T17:18:26;4.80;99.90
4451;DHT22;2238;50.180;9.230;2022-11-27T17:21:29;4.90;99.90
4451;DHT22;2238;50.180;9.230;2022-11-27T17:24:30;4.80;99.90
4451;DHT22;2238;50.180;9.230;2022-11-27T17:27:31;4.80;99.90
4451;DHT22;2238;50.180;9.230;2022-11-27T17:30:36;4.80;99.90
4451;DHT22;2238;50.180;9.230;2022-11-27T17:33:36;4.70;99.90
4451;DHT22;2238;50.180;9.230;2022-11-27T17:36:37;4.70;99.90
4451;DHT22;2238;50.180;9.230;2022-11-27T17:39:39;4.70;99.90
4451;DHT22;2238;50.180;9.230;2022-11-27T17:42:40;4.70;99.90
4451;DHT22;2238;50.180;9.230;2022-11-27T17:45:41;4.60;99.90
4451;DHT22;2238;50.180;9.230;2022-11-27T17:48:42;4.60;99.90
4451;DHT22;2238;50.180;9.230;2022-11-27T17:51:42;4.60;99.90
4451;DHT22;2238;50.180;9.230;2022-11-27T17:54:43;4.60;99.90
4451;DHT22;2238;50.180;9.230;2022-11-27T18:18:56;4.60;99.90
4451;DHT22;2238;50.180;9.230;2022-11-27T18:31:13;4.60;99.90
4451;DHT22;2238;50.180;9.230;2022-11-27T18:46:20;4.60;99.90
4451;DHT22;2238;50.180;9.230;2022-11-27T18:49:20;4.60;99.90
4451;DHT22;2238;50.180;9.230;2022-11-27T18:52:22;4.60;99.90
4451;DHT22;2238;50.180;9.230;2022-11-27T18:55:23;4.60;99.90
4451;DHT22;2238;50.180;9.230;2022-11-27T18:58:23;4.60;99.90
4451;DHT22;2238;50.180;9.230;2022-11-27T19:01:27;4.70;99.90
4451;DHT22;2238;50.180;9.230;2022-11-27T19:04:28;4.60;99.90
4451;DHT22;2238;50.180;9.230;2022-11-27T19:07:28;4.60;99.90
4451;DHT22;2238;50.180;9.230;2022-11-27T19:10:29;4.60;99.90
4451;DHT22;2238;50.180;9.230;2022-11-27T19:13:30;4.60;99.90
4451;DHT22;2238;50.180;9.230;2022-11-27T19:16:36;4.60;99.90
4451;DHT22;2238;50.180;9.230;2022-11-27T19:19:41;4.60;99.90
4451;DHT22;2238;50.180;9.230;2022-11-27T19:22:41;6.00;99.90
4451;DHT22;2238;50.180;9.230;2022-11-27T19:25:42;4.60;99.90
4451;DHT22;2238;50.180;9.230;2022-11-27T19:28:43;4.70;99.90
4451;DHT22;2238;50.180;9.230;2022-11-27T19:31:45;4.60;99.90
4451;DHT22;2238;50.180;9.230;2022-11-27T19:34:47;4.50;99.90
4451;DHT22;2238;50.180;9.230;2022-11-27T19:37:48;4.50;99.90
4451;DHT22;2238;50.180;9.230;2022-11-27T19:43:49;4.50;99.90
4451;DHT22;2238;50.180;9.230;2022-11-27T19:46:50;4.50;99.90
4451;DHT22;2238;50.180;9.230;2022-11-27T19:49:50;4.50;99.90
4451;DHT22;2238;50.180;9.230;2022-11-27T19:52:51;4.50;99.90
4451;DHT22;2238;50.180;9.230;2022-11-27T19:55:55;4.40;99.90
4451;DHT22;2238;50.180;9.230;2022-11-27T19:58:55;4.50;99.90
4451;DHT22;2238;50.180;9.230;2022-11-27T20:01:56;4.50;99.90
4451;DHT22;2238;50.180;9.230;2022-11-27T20:04:57;4.50;99.90
4451;DHT22;2238;50.180;9.230;2022-11-27T20:07:57;4.50;99.90
4451;DHT22;2238;50.180;9.230;2022-11-27T20:10:59;4.40;99.90
4451;DHT22;2238;50.180;9.230;2022-11-27T20:14:00;4.50;99.90
4451;DHT22;2238;50.180;9.230;2022-11-27T20:17:01;4.40;99.90
4451;DHT22;2238;50.180;9.230;2022-11-27T20:20:02;4.50;99.90
4451;DHT22;2238;50.180;9.230;2022-11-27T20:23:03;4.50;99.90
4451;DHT22;2238;50.180;9.230;2022-11-27T20:26:05;6.50;99.90
4451;DHT22;2238;50.180;9.230;2022-11-27T20:29:06;4.40;99.90
4451;DHT22;2238;50.180;9.230;2022-11-27T20:32:06;4.50;99.90
4451;DHT22;2238;50.180;9.230;2022-11-27T20:35:07;4.40;99.90
4451;DHT22;2238;50.180;9.230;2022-11-27T20:46:15;4.50;99.90
4451;DHT22;2238;50.180;9.230;2022-11-27T21:04:24;4.30;99.90
4451;DHT22;2238;50.180;9.230;2022-11-27T21:16:31;4.30;99.90
4451;DHT22;2238;50.180;9.230;2022-11-27T21:34:40;4.30;99.90
4451;DHT22;2238;50.180;9.230;2022-11-27T21:40:42;4.60;99.90
4451;DHT22;2238;50.180;9.230;2022-11-27T21:43:43;4.60;99.90
4451;DHT22;2238;50.180;9.230;2022-11-27T21:49:48;4.80;99.90
4451;DHT22;2238;50.180;9.230;2022-11-27T21:52:51;4.70;99.90
4451;DHT22;2238;50.180;9.230;2022-11-27T21:58:52;4.70;99.90
4451;DHT22;2238;50.180;9.230;2022-11-27T22:01:53;4.70;99.90
4451;DHT22;2238;50.180;9.230;2022-11-27T22:14:02;4.40;99.90
4451;DHT22;2238;50.180;9.230;2022-11-27T22:23:05;4.30;99.90
4451;DHT22;2238;50.180;9.230;2022-11-27T22:26:17;4.30;99.90
4451;DHT22;2238;50.180;9.230;2022-11-27T22:32:19;4.20;99.90
4451;DHT22;2238;50.180;9.230;2022-11-27T22:41:24;4.20;99.90
4451;DHT22;2238;50.180;9.230;2022-11-27T22:44:25;4.10;99.90
4451;DHT22;2238;50.180;9.230;2022-11-27T22:47:26;4.10;99.90
4451;DHT22;2238;50.180;9.230;2022-11-27T22:56:29;4.10;99.90
4451;DHT22;2238;50.180;9.230;2022-11-27T23:02:30;4.10;99.90
4451;DHT22;2238;50.180;9.230;2022-11-27T23:05:31;4.10;99.90
4451;DHT22;2238;50.180;9.230;2022-11-27T23:14:36;4.10;99.90
4451;DHT22;2238;50.180;9.230;2022-11-27T23:17:37;4.10;99.90
4451;DHT22;2238;50.180;9.230;2022-11-27T23:20:41;4.10;99.90
4451;DHT22;2238;50.180;9.230;2022-11-27T23:29:45;4.10;99.90
4451;DHT22;2238;50.180;9.230;2022-11-27T23:32:45;4.10;99.90
4451;DHT22;2238;50.180;9.230;2022-11-27T23:56:53;4.20;99.90
